sensor_id;sensor_type;location;lat;lon;timestamp;temperature;humidity
15343;DHT22;7771;48.478;8.936;2023-05-27T00:00:40;15.90;99.90
15343;DHT22;7771;48.478;8.936;2023-05-27T00:03:07;15.80;99.90
15343;DHT22;7771;48.478;8.936;2023-05-27T00:05:35;15.80;99.90
15343;DHT22;7771;48.478;8.936;2023-05-27T00:10:30;15.80;99.90
15343;DHT22;7771;48.478;8.936;2023-05-27T00:12:57;15.80;99.90
15343;DHT22;7771;48.478;8.936;2023-05-27T00:15:25;15.70;99.90
15343;DHT22;7771;48.478;8.936;2023-05-27T00:17:53;15.70;99.90
15343;DHT22;7771;48.478;8.936;2023-05-27T00:20:21;15.70;99.90
15343;DHT22;7771;48.478;8.936;2023-05-27T00:25:15;15.70;99.90
15343;DHT22;7771;48.478;8.936;2023-05-27T00:27:41;15.70;99.90
15343;DHT22;7771;48.478;8.936;2023-05-27T00:30:08;15.60;99.90
15343;DHT22;7771;48.478;8.936;2023-05-27T00:32:36;15.60;99.90
15343;DHT22;7771;48.478;8.936;2023-05-27T00:35:04;15.60;99.90
15343;DHT22;7771;48.478;8.936;2023-05-27T00:37:30;15.60;99.90
15343;DHT22;7771;48.478;8.936;2023-05-27T00:39:59;15.60;99.90
15343;DHT22;7771;48.478;8.936;2023-05-27T00:42:26;15.50;99.90
15343;DHT22;7771;48.478;8.936;2023-05-27T00:44:52;15.50;99.90
15343;DHT22;7771;48.478;8.936;2023-05-27T00:47:20;15.40;99.90
15343;DHT22;7771;48.478;8.936;2023-05-27T00:49:47;15.40;99.90
15343;DHT22;7771;48.478;8.936;2023-05-27T00:52:14;15.40;99.90
15343;DHT22;7771;48.478;8.936;2023-05-27T00:54:41;15.30;99.90
15343;DHT22;7771;48.478;8.936;2023-05-27T00:57:08;15.30;99.90
15343;DHT22;7771;48.478;8.936;2023-05-27T00:59:35;15.20;99.90
15343;DHT22;7771;48.478;8.936;2023-05-27T01:02:01;15.20;99.90
15343;DHT22;7771;48.478;8.936;2023-05-27T01:04:29;15.10;99.90
15343;DHT22;7771;48.478;8.936;2023-05-27T01:12:14;15.10;99.90
15343;DHT22;7771;48.478;8.936;2023-05-27T01:14:38;15.00;99.90
15343;DHT22;7771;48.478;8.936;2023-05-27T01:17:05;15.00;99.90
15343;DHT22;7771;48.478;8.936;2023-05-27T01:19:34;14.90;99.90
15343;DHT22;7771;48.478;8.936;2023-05-27T01:22:01;14.90;99.90
15343;DHT22;7771;48.478;8.936;2023-05-27T01:26:56;14.80;99.90
15343;DHT22;7771;48.478;8.936;2023-05-27T01:29:23;14.80;99.90
15343;DHT22;7771;48.478;8.936;2023-05-27T01:31:56;14.70;99.90
15343;DHT22;7771;48.478;8.936;2023-05-27T01:34:24;14.70;99.90
15343;DHT22;7771;48.478;8.936;2023-05-27T01:36:50;14.60;99.90
15343;DHT22;7771;48.478;8.936;2023-05-27T01:39:16;14.60;99.90
15343;DHT22;7771;48.478;8.936;2023-05-27T01:41:43;14.50;99.90
15343;DHT22;7771;48.478;8.936;2023-05-27T01:44:10;14.50;99.90
15343;DHT22;7771;48.478;8.936;2023-05-27T01:46:37;14.40;99.90
15343;DHT22;7771;48.478;8.936;2023-05-27T01:49:04;14.40;99.90
15343;DHT22;7771;48.478;8.936;2023-05-27T01:51:31;14.40;99.90
15343;DHT22;7771;48.478;8.936;2023-05-27T01:53:57;14.30;99.90
15343;DHT22;7771;48.478;8.936;2023-05-27T01:56:25;14.30;99.90
15343;DHT22;7771;48.478;8.936;2023-05-27T01:58:53;14.30;99.90
15343;DHT22;7771;48.478;8.936;2023-05-27T02:03:49;14.20;99.90
15343;DHT22;7771;48.478;8.936;2023-05-27T02:06:15;14.20;99.90
15343;DHT22;7771;48.478;8.936;2023-05-27T02:08:43;14.10;99.90
15343;DHT22;7771;48.478;8.936;2023-05-27T02:11:09;14.20;99.90
15343;DHT22;7771;48.478;8.936;2023-05-27T02:13:36;14.10;99.90
15343;DHT22;7771;48.478;8.936;2023-05-27T02:16:03;14.10;99.90
15343;DHT22;7771;48.478;8.936;2023-05-27T02:18:31;14.10;99.90
15343;DHT22;7771;48.478;8.936;2023-05-27T02:20:58;14.10;99.90
15343;DHT22;7771;48.478;8.936;2023-05-27T02:23:24;14.10;99.90
15343;DHT22;7771;48.478;8.936;2023-05-27T02:25:52;14.10;99.90
15343;DHT22;7771;48.478;8.936;2023-05-27T02:30:47;14.10;99.90
15343;DHT22;7771;48.478;8.936;2023-05-27T02:33:14;14.00;99.90
15343;DHT22;7771;48.478;8.936;2023-05-27T02:35:40;14.00;99.90
15343;DHT22;7771;48.478;8.936;2023-05-27T02:38:08;14.00;99.90
15343;DHT22;7771;48.478;8.936;2023-05-27T02:40:35;13.90;99.90
15343;DHT22;7771;48.478;8.936;2023-05-27T02:43:03;13.90;99.90
15343;DHT22;7771;48.478;8.936;2023-05-27T02:45:30;13.90;99.90
15343;DHT22;7771;48.478;8.936;2023-05-27T02:47:57;13.80;99.90
15343;DHT22;7771;48.478;8.936;2023-05-27T02:52:51;13.70;99.90
15343;DHT22;7771;48.478;8.936;2023-05-27T02:55:19;13.60;99.90
15343;DHT22;7771;48.478;8.936;2023-05-27T02:57:45;13.50;99.90
15343;DHT22;7771;48.478;8.936;2023-05-27T03:00:13;13.50;99.90
15343;DHT22;7771;48.478;8.936;2023-05-27T03:02:39;13.60;99.90
15343;DHT22;7771;48.478;8.936;2023-05-27T03:05:06;13.50;99.90
15343;DHT22;7771;48.478;8.936;2023-05-27T03:07:34;13.50;99.90
15343;DHT22;7771;48.478;8.936;2023-05-27T03:10:01;13.40;99.90
15343;DHT22;7771;48.478;8.936;2023-05-27T03:12:28;13.40;99.90
15343;DHT22;7771;48.478;8.936;2023-05-27T03:14:56;13.40;99.90
15343;DHT22;7771;48.478;8.936;2023-05-27T03:17:23;13.30;99.90
15343;DHT22;7771;48.478;8.936;2023-05-27T03:19:52;13.30;99.90
15343;DHT22;7771;48.478;8.936;2023-05-27T03:22:18;13.30;99.90
15343;DHT22;7771;48.478;8.936;2023-05-27T03:24:45;13.30;99.90
15343;DHT22;7771;48.478;8.936;2023-05-27T03:27:12;13.20;99.90
15343;DHT22;7771;48.478;8.936;2023-05-27T03:29:40;13.20;99.90
15343;DHT22;7771;48.478;8.936;2023-05-27T03:32:06;13.20;99.90
15343;DHT22;7771;48.478;8.936;2023-05-27T03:34:33;13.10;99.90
15343;DHT22;7771;48.478;8.936;2023-05-27T03:37:00;13.10;99.90
15343;DHT22;7771;48.478;8.936;2023-05-27T03:39:27;13.10;99.90
15343;DHT22;7771;48.478;8.936;2023-05-27T03:41:55;13.10;99.90
15343;DHT22;7771;48.478;8.936;2023-05-27T03:44:21;13.10;99.90
15343;DHT22;7771;48.478;8.936;2023-05-27T03:46:49;13.00;99.90
15343;DHT22;7771;48.478;8.936;2023-05-27T03:49:17;13.00;99.90
15343;DHT22;7771;48.478;8.936;2023-05-27T03:51:43;12.90;99.90
15343;DHT22;7771;48.478;8.936;2023-05-27T03:54:11;12.90;99.90
15343;DHT22;7771;48.478;8.936;2023-05-27T03:56:38;13.00;99.90
15343;DHT22;7771;48.478;8.936;2023-05-27T03:59:05;13.00;99.90
15343;DHT22;7771;48.478;8.936;2023-05-27T04:01:32;12.90;99.90
15343;DHT22;7771;48.478;8.936;2023-05-27T04:03:59;12.90;99.90
15343;DHT22;7771;48.478;8.936;2023-05-27T04:06:26;12.90;99.90
15343;DHT22;7771;48.478;8.936;2023-05-27T04:11:21;12.90;99.90
15343;DHT22;7771;48.478;8.936;2023-05-27T04:13:48;13.00;99.90
15343;DHT22;7771;48.478;8.936;2023-05-27T04:16:14;13.00;99.90
15343;DHT22;7771;48.478;8.936;2023-05-27T04:21:10;12.90;99.90
15343;DHT22;7771;48.478;8.936;2023-05-27T04:23:37;13.00;99.90
15343;DHT22;7771;48.478;8.936;2023-05-27T04:28:31;13.00;99.90
15343;DHT22;7771;48.478;8.936;2023-05-27T04:33:27;13.00;99.90
15343;DHT22;7771;48.478;8.936;2023-05-27T04:35:53;13.00;99.90
15343;DHT22;7771;48.478;8.936;2023-05-27T04:38:20;13.00;99.90
15343;DHT22;7771;48.478;8.936;2023-05-27T04:40:48;13.00;99.90
15343;DHT22;7771;48.478;8.936;2023-05-27T04:43:15;13.00;99.90
15343;DHT22;7771;48.478;8.936;2023-05-27T04:48:09;13.00;99.90
15343;DHT22;7771;48.478;8.936;2023-05-27T04:50:36;13.00;99.90
15343;DHT22;7771;48.478;8.936;2023-05-27T04:53:03;13.00;99.90
15343;DHT22;7771;48.478;8.936;2023-05-27T04:55:30;13.10;99.90
15343;DHT22;7771;48.478;8.936;2023-05-27T04:57:56;13.10;99.90
15343;DHT22;7771;48.478;8.936;2023-05-27T05:00:24;13.10;99.90
15343;DHT22;7771;48.478;8.936;2023-05-27T05:02:57;13.10;99.90
15343;DHT22;7771;48.478;8.936;2023-05-27T05:10:20;13.20;99.90
15343;DHT22;7771;48.478;8.936;2023-05-27T05:12:48;13.20;99.90
15343;DHT22;7771;48.478;8.936;2023-05-27T05:15:14;13.20;99.90
15343;DHT22;7771;48.478;8.936;2023-05-27T05:17:41;13.30;99.90
15343;DHT22;7771;48.478;8.936;2023-05-27T05:20:08;13.40;99.90
15343;DHT22;7771;48.478;8.936;2023-05-27T05:22:35;13.40;99.90
15343;DHT22;7771;48.478;8.936;2023-05-27T05:25:03;13.50;99.90
15343;DHT22;7771;48.478;8.936;2023-05-27T05:27:30;13.50;99.90
15343;DHT22;7771;48.478;8.936;2023-05-27T05:29:57;13.60;99.90
15343;DHT22;7771;48.478;8.936;2023-05-27T05:32:24;13.70;99.90
15343;DHT22;7771;48.478;8.936;2023-05-27T05:37:19;13.80;99.90
15343;DHT22;7771;48.478;8.936;2023-05-27T05:39:47;13.90;99.90
15343;DHT22;7771;48.478;8.936;2023-05-27T05:42:13;14.00;99.90
15343;DHT22;7771;48.478;8.936;2023-05-27T05:44:40;14.00;99.90
15343;DHT22;7771;48.478;8.936;2023-05-27T05:49:35;14.30;99.90
15343;DHT22;7771;48.478;8.936;2023-05-27T05:52:02;14.40;99.90
15343;DHT22;7771;48.478;8.936;2023-05-27T05:54:30;14.50;99.90
15343;DHT22;7771;48.478;8.936;2023-05-27T06:09:16;15.20;99.90
15343;DHT22;7771;48.478;8.936;2023-05-27T06:14:11;15.40;99.90
15343;DHT22;7771;48.478;8.936;2023-05-27T06:16:38;15.60;99.90
15343;DHT22;7771;48.478;8.936;2023-05-27T06:19:05;15.70;99.90
15343;DHT22;7771;48.478;8.936;2023-05-27T06:21:31;15.80;99.90
15343;DHT22;7771;48.478;8.936;2023-05-27T06:23:59;15.90;99.90
15343;DHT22;7771;48.478;8.936;2023-05-27T06:26:27;16.00;99.90
15343;DHT22;7771;48.478;8.936;2023-05-27T06:31:21;16.30;99.90
15343;DHT22;7771;48.478;8.936;2023-05-27T06:36:16;16.70;99.90
15343;DHT22;7771;48.478;8.936;2023-05-27T06:38:43;17.60;99.90
15343;DHT22;7771;48.478;8.936;2023-05-27T06:41:10;18.70;99.90
15343;DHT22;7771;48.478;8.936;2023-05-27T06:43:36;19.90;99.90
15343;DHT22;7771;48.478;8.936;2023-05-27T06:46:04;21.00;99.90
15343;DHT22;7771;48.478;8.936;2023-05-27T06:48:31;22.20;97.50
15343;DHT22;7771;48.478;8.936;2023-05-27T06:53:26;24.10;93.70
15343;DHT22;7771;48.478;8.936;2023-05-27T06:55:54;25.00;91.50
15343;DHT22;7771;48.478;8.936;2023-05-27T06:58:20;25.70;90.00
15343;DHT22;7771;48.478;8.936;2023-05-27T07:00:48;26.40;86.50
15343;DHT22;7771;48.478;8.936;2023-05-27T07:03:15;27.00;83.80
15343;DHT22;7771;48.478;8.936;2023-05-27T07:05:41;27.60;81.50
15343;DHT22;7771;48.478;8.936;2023-05-27T07:08:08;28.00;79.20
15343;DHT22;7771;48.478;8.936;2023-05-27T07:10:35;28.30;77.10
15343;DHT22;7771;48.478;8.936;2023-05-27T07:13:03;28.70;76.00
15343;DHT22;7771;48.478;8.936;2023-05-27T07:15:31;29.10;74.30
15343;DHT22;7771;48.478;8.936;2023-05-27T07:17:57;29.40;73.20
15343;DHT22;7771;48.478;8.936;2023-05-27T07:20:25;29.70;71.20
15343;DHT22;7771;48.478;8.936;2023-05-27T07:22:51;29.80;71.00
15343;DHT22;7771;48.478;8.936;2023-05-27T07:25:20;30.00;70.10
15343;DHT22;7771;48.478;8.936;2023-05-27T07:27:47;30.00;69.30
15343;DHT22;7771;48.478;8.936;2023-05-27T07:30:14;30.10;68.90
15343;DHT22;7771;48.478;8.936;2023-05-27T07:32:41;30.30;68.10
15343;DHT22;7771;48.478;8.936;2023-05-27T07:35:08;30.50;68.10
15343;DHT22;7771;48.478;8.936;2023-05-27T07:37:34;30.80;67.80
15343;DHT22;7771;48.478;8.936;2023-05-27T07:40:02;31.00;66.90
15343;DHT22;7771;48.478;8.936;2023-05-27T07:42:28;31.40;66.20
15343;DHT22;7771;48.478;8.936;2023-05-27T07:44:56;31.60;65.20
15343;DHT22;7771;48.478;8.936;2023-05-27T07:47:24;31.90;64.80
15343;DHT22;7771;48.478;8.936;2023-05-27T07:49:51;32.10;64.20
15343;DHT22;7771;48.478;8.936;2023-05-27T07:52:18;32.30;62.60
15343;DHT22;7771;48.478;8.936;2023-05-27T07:54:44;32.40;62.50
15343;DHT22;7771;48.478;8.936;2023-05-27T07:57:11;32.50;62.20
15343;DHT22;7771;48.478;8.936;2023-05-27T07:59:38;32.60;61.80
15343;DHT22;7771;48.478;8.936;2023-05-27T08:02:05;32.80;61.20
15343;DHT22;7771;48.478;8.936;2023-05-27T08:04:33;32.70;61.20
15343;DHT22;7771;48.478;8.936;2023-05-27T08:07:00;32.50;61.10
15343;DHT22;7771;48.478;8.936;2023-05-27T08:09:27;32.00;61.60
15343;DHT22;7771;48.478;8.936;2023-05-27T08:11:53;31.30;62.00
15343;DHT22;7771;48.478;8.936;2023-05-27T08:14:21;30.30;63.30
15343;DHT22;7771;48.478;8.936;2023-05-27T08:16:49;29.40;64.90
15343;DHT22;7771;48.478;8.936;2023-05-27T08:19:17;28.70;65.90
15343;DHT22;7771;48.478;8.936;2023-05-27T08:21:43;28.20;67.80
15343;DHT22;7771;48.478;8.936;2023-05-27T08:24:10;27.80;68.20
15343;DHT22;7771;48.478;8.936;2023-05-27T08:26:37;27.40;68.90
15343;DHT22;7771;48.478;8.936;2023-05-27T08:29:04;27.10;70.10
15343;DHT22;7771;48.478;8.936;2023-05-27T08:31:31;26.90;71.20
15343;DHT22;7771;48.478;8.936;2023-05-27T08:33:59;26.60;72.20
15343;DHT22;7771;48.478;8.936;2023-05-27T08:36:26;26.40;72.30
15343;DHT22;7771;48.478;8.936;2023-05-27T08:38:52;26.20;72.70
15343;DHT22;7771;48.478;8.936;2023-05-27T08:41:19;26.20;72.50
15343;DHT22;7771;48.478;8.936;2023-05-27T08:43:47;26.10;73.50
15343;DHT22;7771;48.478;8.936;2023-05-27T08:46:14;25.90;73.30
15343;DHT22;7771;48.478;8.936;2023-05-27T08:48:41;26.00;73.10
15343;DHT22;7771;48.478;8.936;2023-05-27T08:51:08;25.90;73.70
15343;DHT22;7771;48.478;8.936;2023-05-27T08:53:35;25.90;73.90
15343;DHT22;7771;48.478;8.936;2023-05-27T08:56:03;25.90;73.90
15343;DHT22;7771;48.478;8.936;2023-05-27T08:58:30;25.90;73.00
15343;DHT22;7771;48.478;8.936;2023-05-27T09:03:26;25.80;74.00
15343;DHT22;7771;48.478;8.936;2023-05-27T09:05:54;25.90;73.80
15343;DHT22;7771;48.478;8.936;2023-05-27T09:08:21;25.80;73.70
15343;DHT22;7771;48.478;8.936;2023-05-27T09:10:47;25.80;74.20
15343;DHT22;7771;48.478;8.936;2023-05-27T09:13:24;25.80;74.10
15343;DHT22;7771;48.478;8.936;2023-05-27T09:15:43;25.90;74.60
15343;DHT22;7771;48.478;8.936;2023-05-27T09:18:09;26.00;73.70
15343;DHT22;7771;48.478;8.936;2023-05-27T09:23:05;26.10;73.50
15343;DHT22;7771;48.478;8.936;2023-05-27T09:25:32;26.00;73.10
15343;DHT22;7771;48.478;8.936;2023-05-27T09:30:28;25.80;73.90
15343;DHT22;7771;48.478;8.936;2023-05-27T09:33:00;25.60;75.30
15343;DHT22;7771;48.478;8.936;2023-05-27T09:35:20;25.50;75.10
15343;DHT22;7771;48.478;8.936;2023-05-27T09:37:47;25.50;75.20
15343;DHT22;7771;48.478;8.936;2023-05-27T09:40:14;25.50;75.30
15343;DHT22;7771;48.478;8.936;2023-05-27T09:42:43;25.50;75.70
15343;DHT22;7771;48.478;8.936;2023-05-27T09:45:12;25.70;75.90
15343;DHT22;7771;48.478;8.936;2023-05-27T09:47:39;25.80;75.40
15343;DHT22;7771;48.478;8.936;2023-05-27T09:50:08;26.00;74.60
15343;DHT22;7771;48.478;8.936;2023-05-27T09:52:36;26.00;74.60
15343;DHT22;7771;48.478;8.936;2023-05-27T09:59:59;26.10;73.80
15343;DHT22;7771;48.478;8.936;2023-05-27T10:02:27;26.00;74.30
15343;DHT22;7771;48.478;8.936;2023-05-27T10:04:53;26.10;73.80
15343;DHT22;7771;48.478;8.936;2023-05-27T10:07:21;26.10;75.90
15343;DHT22;7771;48.478;8.936;2023-05-27T10:09:49;26.20;74.50
15343;DHT22;7771;48.478;8.936;2023-05-27T10:12:16;26.20;73.70
15343;DHT22;7771;48.478;8.936;2023-05-27T10:17:12;26.40;74.50
15343;DHT22;7771;48.478;8.936;2023-05-27T10:19:48;26.50;73.10
15343;DHT22;7771;48.478;8.936;2023-05-27T10:22:10;26.40;73.40
15343;DHT22;7771;48.478;8.936;2023-05-27T10:24:38;26.40;73.10
15343;DHT22;7771;48.478;8.936;2023-05-27T10:27:05;26.40;73.00
15343;DHT22;7771;48.478;8.936;2023-05-27T10:29:35;26.50;73.60
15343;DHT22;7771;48.478;8.936;2023-05-27T10:32:04;26.60;73.30
15343;DHT22;7771;48.478;8.936;2023-05-27T10:34:36;26.60;72.90
15343;DHT22;7771;48.478;8.936;2023-05-27T10:37:02;26.70;72.70
15343;DHT22;7771;48.478;8.936;2023-05-27T10:39:28;26.60;72.40
15343;DHT22;7771;48.478;8.936;2023-05-27T10:41:56;26.70;72.60
15343;DHT22;7771;48.478;8.936;2023-05-27T10:44:29;26.70;72.00
15343;DHT22;7771;48.478;8.936;2023-05-27T10:49:25;26.70;71.60
15343;DHT22;7771;48.478;8.936;2023-05-27T10:54:23;26.90;70.80
15343;DHT22;7771;48.478;8.936;2023-05-27T10:56:50;26.80;70.80
15343;DHT22;7771;48.478;8.936;2023-05-27T10:59:19;26.70;71.90
15343;DHT22;7771;48.478;8.936;2023-05-27T11:01:45;26.60;71.50
15343;DHT22;7771;48.478;8.936;2023-05-27T11:06:40;26.60;71.40
15343;DHT22;7771;48.478;8.936;2023-05-27T11:09:08;26.50;71.30
15343;DHT22;7771;48.478;8.936;2023-05-27T11:11:35;26.50;72.10
15343;DHT22;7771;48.478;8.936;2023-05-27T11:14:02;26.60;71.50
15343;DHT22;7771;48.478;8.936;2023-05-27T11:19:03;26.60;71.60
15343;DHT22;7771;48.478;8.936;2023-05-27T11:21:30;26.70;72.30
15343;DHT22;7771;48.478;8.936;2023-05-27T11:26:24;26.90;70.90
15343;DHT22;7771;48.478;8.936;2023-05-27T11:28:53;26.90;70.30
15343;DHT22;7771;48.478;8.936;2023-05-27T11:31:21;27.00;70.70
15343;DHT22;7771;48.478;8.936;2023-05-27T11:33:48;26.90;70.20
15343;DHT22;7771;48.478;8.936;2023-05-27T11:36:14;26.80;70.40
15343;DHT22;7771;48.478;8.936;2023-05-27T11:38:46;26.70;70.60
15343;DHT22;7771;48.478;8.936;2023-05-27T11:41:12;26.50;71.20
15343;DHT22;7771;48.478;8.936;2023-05-27T11:43:47;26.50;71.90
15343;DHT22;7771;48.478;8.936;2023-05-27T11:46:13;26.50;70.80
15343;DHT22;7771;48.478;8.936;2023-05-27T11:48:40;26.50;71.60
15343;DHT22;7771;48.478;8.936;2023-05-27T11:51:07;26.50;72.20
15343;DHT22;7771;48.478;8.936;2023-05-27T11:53:39;26.60;71.50
15343;DHT22;7771;48.478;8.936;2023-05-27T11:56:05;26.70;71.20
15343;DHT22;7771;48.478;8.936;2023-05-27T11:58:31;26.70;70.70
15343;DHT22;7771;48.478;8.936;2023-05-27T12:03:26;26.70;70.00
15343;DHT22;7771;48.478;8.936;2023-05-27T12:05:58;26.70;71.10
15343;DHT22;7771;48.478;8.936;2023-05-27T12:08:25;26.70;70.90
15343;DHT22;7771;48.478;8.936;2023-05-27T12:10:53;26.60;70.30
15343;DHT22;7771;48.478;8.936;2023-05-27T12:13:21;26.50;70.80
15343;DHT22;7771;48.478;8.936;2023-05-27T12:15:48;26.60;71.70
15343;DHT22;7771;48.478;8.936;2023-05-27T12:18:16;26.60;71.20
15343;DHT22;7771;48.478;8.936;2023-05-27T12:20:44;26.70;70.60
15343;DHT22;7771;48.478;8.936;2023-05-27T12:23:11;26.70;70.30
15343;DHT22;7771;48.478;8.936;2023-05-27T12:25:39;26.90;70.70
15343;DHT22;7771;48.478;8.936;2023-05-27T12:28:08;26.90;70.60
15343;DHT22;7771;48.478;8.936;2023-05-27T12:30:35;26.90;69.00
15343;DHT22;7771;48.478;8.936;2023-05-27T12:33:03;26.90;69.40
15343;DHT22;7771;48.478;8.936;2023-05-27T12:35:30;26.90;70.80
15343;DHT22;7771;48.478;8.936;2023-05-27T12:37:58;27.00;69.80
15343;DHT22;7771;48.478;8.936;2023-05-27T12:42:54;27.10;68.30
15343;DHT22;7771;48.478;8.936;2023-05-27T12:47:50;27.00;68.90
15343;DHT22;7771;48.478;8.936;2023-05-27T12:50:19;26.90;68.20
15343;DHT22;7771;48.478;8.936;2023-05-27T12:52:45;26.80;69.80
15343;DHT22;7771;48.478;8.936;2023-05-27T12:55:13;26.80;69.40
15343;DHT22;7771;48.478;8.936;2023-05-27T12:57:39;26.90;68.70
15343;DHT22;7771;48.478;8.936;2023-05-27T13:00:06;26.90;68.80
15343;DHT22;7771;48.478;8.936;2023-05-27T13:02:34;26.90;68.50
15343;DHT22;7771;48.478;8.936;2023-05-27T13:05:01;26.90;68.00
15343;DHT22;7771;48.478;8.936;2023-05-27T13:09:56;26.90;67.90
15343;DHT22;7771;48.478;8.936;2023-05-27T13:12:23;26.90;69.00
15343;DHT22;7771;48.478;8.936;2023-05-27T13:14:50;26.90;68.30
15343;DHT22;7771;48.478;8.936;2023-05-27T13:17:16;27.00;67.80
15343;DHT22;7771;48.478;8.936;2023-05-27T13:19:44;27.00;68.50
15343;DHT22;7771;48.478;8.936;2023-05-27T13:22:12;27.10;68.30
15343;DHT22;7771;48.478;8.936;2023-05-27T13:24:38;27.10;68.50
15343;DHT22;7771;48.478;8.936;2023-05-27T13:27:05;27.30;67.60
15343;DHT22;7771;48.478;8.936;2023-05-27T13:29:32;27.30;68.00
15343;DHT22;7771;48.478;8.936;2023-05-27T13:36:56;27.60;65.90
15343;DHT22;7771;48.478;8.936;2023-05-27T13:39:22;27.60;65.60
15343;DHT22;7771;48.478;8.936;2023-05-27T13:41:49;27.60;65.10
15343;DHT22;7771;48.478;8.936;2023-05-27T13:46:44;27.60;65.70
15343;DHT22;7771;48.478;8.936;2023-05-27T13:51:42;27.70;65.20
15343;DHT22;7771;48.478;8.936;2023-05-27T13:54:09;27.60;65.90
15343;DHT22;7771;48.478;8.936;2023-05-27T13:56:36;27.60;66.60
15343;DHT22;7771;48.478;8.936;2023-05-27T13:59:03;27.50;66.10
15343;DHT22;7771;48.478;8.936;2023-05-27T14:01:30;27.50;66.30
15343;DHT22;7771;48.478;8.936;2023-05-27T14:06:25;27.30;66.00
15343;DHT22;7771;48.478;8.936;2023-05-27T14:08:53;27.30;66.70
15343;DHT22;7771;48.478;8.936;2023-05-27T14:11:20;27.20;66.60
15343;DHT22;7771;48.478;8.936;2023-05-27T14:16:14;27.20;67.50
15343;DHT22;7771;48.478;8.936;2023-05-27T14:18:41;27.20;67.00
15343;DHT22;7771;48.478;8.936;2023-05-27T14:21:09;27.30;67.00
15343;DHT22;7771;48.478;8.936;2023-05-27T14:23:36;27.30;65.70
15343;DHT22;7771;48.478;8.936;2023-05-27T14:26:03;27.40;65.90
15343;DHT22;7771;48.478;8.936;2023-05-27T14:28:30;27.30;66.00
15343;DHT22;7771;48.478;8.936;2023-05-27T14:30:57;27.30;66.90
15343;DHT22;7771;48.478;8.936;2023-05-27T14:33:25;27.20;67.00
15343;DHT22;7771;48.478;8.936;2023-05-27T14:38:19;27.30;66.30
15343;DHT22;7771;48.478;8.936;2023-05-27T14:40:47;27.20;66.20
15343;DHT22;7771;48.478;8.936;2023-05-27T14:43:13;27.20;66.00
15343;DHT22;7771;48.478;8.936;2023-05-27T14:45:40;27.10;66.90
15343;DHT22;7771;48.478;8.936;2023-05-27T14:48:07;27.10;66.90
15343;DHT22;7771;48.478;8.936;2023-05-27T14:50:34;27.10;66.10
15343;DHT22;7771;48.478;8.936;2023-05-27T14:53:02;27.10;65.70
15343;DHT22;7771;48.478;8.936;2023-05-27T14:55:29;27.10;66.10
15343;DHT22;7771;48.478;8.936;2023-05-27T14:57:56;26.90;66.80
15343;DHT22;7771;48.478;8.936;2023-05-27T15:02:52;26.90;66.30
15343;DHT22;7771;48.478;8.936;2023-05-27T15:05:20;26.90;66.60
15343;DHT22;7771;48.478;8.936;2023-05-27T15:07:46;26.90;66.30
15343;DHT22;7771;48.478;8.936;2023-05-27T15:10:14;26.90;65.90
15343;DHT22;7771;48.478;8.936;2023-05-27T15:12:44;26.90;65.40
15343;DHT22;7771;48.478;8.936;2023-05-27T15:15:11;26.80;66.00
15343;DHT22;7771;48.478;8.936;2023-05-27T15:17:37;26.60;66.80
15343;DHT22;7771;48.478;8.936;2023-05-27T15:20:05;26.60;66.50
15343;DHT22;7771;48.478;8.936;2023-05-27T15:22:32;26.60;65.90
15343;DHT22;7771;48.478;8.936;2023-05-27T15:24:59;26.60;65.60
15343;DHT22;7771;48.478;8.936;2023-05-27T15:29:55;26.40;66.00
15343;DHT22;7771;48.478;8.936;2023-05-27T15:32:21;26.40;66.70
15343;DHT22;7771;48.478;8.936;2023-05-27T15:34:49;26.30;66.00
15343;DHT22;7771;48.478;8.936;2023-05-27T15:37:17;26.20;66.10
15343;DHT22;7771;48.478;8.936;2023-05-27T15:39:44;26.20;66.60
15343;DHT22;7771;48.478;8.936;2023-05-27T15:42:11;26.10;66.30
15343;DHT22;7771;48.478;8.936;2023-05-27T15:47:07;26.00;67.50
15343;DHT22;7771;48.478;8.936;2023-05-27T15:49:34;25.90;68.30
15343;DHT22;7771;48.478;8.936;2023-05-27T15:52:00;25.90;68.00
15343;DHT22;7771;48.478;8.936;2023-05-27T15:54:28;25.90;68.00
15343;DHT22;7771;48.478;8.936;2023-05-27T15:56:55;26.00;68.10
15343;DHT22;7771;48.478;8.936;2023-05-27T15:59:22;25.90;67.40
15343;DHT22;7771;48.478;8.936;2023-05-27T16:01:48;25.90;67.30
15343;DHT22;7771;48.478;8.936;2023-05-27T16:04:16;25.90;67.00
15343;DHT22;7771;48.478;8.936;2023-05-27T16:06:44;25.90;67.70
15343;DHT22;7771;48.478;8.936;2023-05-27T16:09:10;25.90;67.70
15343;DHT22;7771;48.478;8.936;2023-05-27T16:11:37;25.90;66.60
15343;DHT22;7771;48.478;8.936;2023-05-27T16:14:04;25.80;67.00
15343;DHT22;7771;48.478;8.936;2023-05-27T16:16:31;25.70;67.40
15343;DHT22;7771;48.478;8.936;2023-05-27T16:21:26;25.70;66.90
15343;DHT22;7771;48.478;8.936;2023-05-27T16:23:53;25.60;66.80
15343;DHT22;7771;48.478;8.936;2023-05-27T16:26:21;25.60;66.50
15343;DHT22;7771;48.478;8.936;2023-05-27T16:28:48;25.60;68.00
15343;DHT22;7771;48.478;8.936;2023-05-27T16:31:16;25.50;67.60
15343;DHT22;7771;48.478;8.936;2023-05-27T16:33:43;25.40;67.40
15343;DHT22;7771;48.478;8.936;2023-05-27T16:36:11;25.40;67.10
15343;DHT22;7771;48.478;8.936;2023-05-27T16:38:39;25.40;67.00
15343;DHT22;7771;48.478;8.936;2023-05-27T16:41:06;25.40;67.00
15343;DHT22;7771;48.478;8.936;2023-05-27T16:46:00;25.40;66.20
15343;DHT22;7771;48.478;8.936;2023-05-27T16:48:28;25.20;66.60
15343;DHT22;7771;48.478;8.936;2023-05-27T16:50:54;25.20;66.00
15343;DHT22;7771;48.478;8.936;2023-05-27T16:55:50;25.00;67.00
15343;DHT22;7771;48.478;8.936;2023-05-27T16:58:16;25.00;66.60
15343;DHT22;7771;48.478;8.936;2023-05-27T17:03:11;24.80;67.30
15343;DHT22;7771;48.478;8.936;2023-05-27T17:05:38;24.80;67.50
15343;DHT22;7771;48.478;8.936;2023-05-27T17:08:05;24.70;67.90
15343;DHT22;7771;48.478;8.936;2023-05-27T17:10:32;24.60;68.80
15343;DHT22;7771;48.478;8.936;2023-05-27T17:13:00;24.60;69.10
15343;DHT22;7771;48.478;8.936;2023-05-27T17:15:27;24.60;69.10
15343;DHT22;7771;48.478;8.936;2023-05-27T17:17:54;24.50;69.60
15343;DHT22;7771;48.478;8.936;2023-05-27T17:22:51;24.50;70.50
15343;DHT22;7771;48.478;8.936;2023-05-27T17:25:19;24.50;69.50
15343;DHT22;7771;48.478;8.936;2023-05-27T17:27:45;24.50;69.30
15343;DHT22;7771;48.478;8.936;2023-05-27T17:30:14;24.40;70.10
15343;DHT22;7771;48.478;8.936;2023-05-27T17:32:41;24.40;70.30
15343;DHT22;7771;48.478;8.936;2023-05-27T17:35:08;24.40;71.00
15343;DHT22;7771;48.478;8.936;2023-05-27T17:37:35;24.30;71.10
15343;DHT22;7771;48.478;8.936;2023-05-27T17:40:02;24.20;71.30
15343;DHT22;7771;48.478;8.936;2023-05-27T17:42:29;24.20;70.50
15343;DHT22;7771;48.478;8.936;2023-05-27T17:44:56;24.20;69.60
15343;DHT22;7771;48.478;8.936;2023-05-27T17:47:24;24.10;69.20
15343;DHT22;7771;48.478;8.936;2023-05-27T17:54:44;23.90;70.60
15343;DHT22;7771;48.478;8.936;2023-05-27T17:57:11;23.80;71.30
15343;DHT22;7771;48.478;8.936;2023-05-27T17:59:38;23.80;71.50
15343;DHT22;7771;48.478;8.936;2023-05-27T18:02:05;23.70;71.70
15343;DHT22;7771;48.478;8.936;2023-05-27T18:04:33;23.60;72.10
15343;DHT22;7771;48.478;8.936;2023-05-27T18:07:00;23.60;72.30